Saint Louis, Missouri
Current Conditions -  °F | °C
As of 5:04 PM on Saturday 22 Nov 2014 (Local Time) from KCPS Reporting Station
Broken Clouds Broken Clouds  
Wind Chill: 56°   Ceiling: 2900
Heat Index: 56°   Visibility: 10mi
Dew Point: 49°   Wind: 6mph
Humidity: 77%   Direction: 180°S
Pressure: 29.96"   Gusts: NA
Location:  38.63°N, 90.24°W
Report Text: KCPS 222304Z 18005KT 10SM BKN029 13/09 A2996 RMK AO2 T01330094
Loading
Personal Weather Stations






























Interactive Weather Map New forecast layout! Learn more

10-Day Weather Forecast

Advertisements
Track Severe Weather on mobile